Time,TemperatureF,DewpointF,PressureIn,WindDirection,WindDirectionDegrees,WindSpeedMPH,WindSpeedGustMPH,Humidity,HourlyPrecipIn,Conditions,Clouds,dailyrainin,SolarRadiationWatts/m^2,SoftwareType,DateUTC
2013-04-16 00:02:00,11.0,5.0,-100.00,NE,47,11.0,19.0,76,0.00,,,0.04,0.000000,,2013-04-16 06:02:00,
2013-04-16 00:32:00,11.0,5.0,-100.00,ENE,58,10.0,19.0,76,0.00,,,0.04,0.000000,,2013-04-16 06:32:00,
2013-04-16 00:42:00,11.0,5.0,-100.00,ENE,58,10.0,19.0,76,0.00,,,0.04,0.000000,,2013-04-16 06:42:00,
2013-04-16 00:52:00,11.0,5.0,-100.00,ENE,58,10.0,19.0,76,0.00,,,0.04,0.000000,,2013-04-16 06:52:00,
2013-04-16 01:02:00,11.0,5.0,-100.00,ENE,58,10.0,19.0,76,0.00,,,0.04,0.000000,,2013-04-16 07:02:00,
2013-04-16 01:32:00,10.0,4.0,-100.00,NE,43,9.0,23.0,75,0.00,,,0.04,0.000000,,2013-04-16 07:32:00,
2013-04-16 01:42:00,10.0,4.0,-100.00,NE,43,9.0,23.0,75,0.00,,,0.04,0.000000,,2013-04-16 07:42:00,
2013-04-16 01:53:00,10.0,4.0,-100.00,NE,43,9.0,23.0,75,0.00,,,0.04,0.000000,,2013-04-16 07:53:00,
2013-04-16 02:02:00,10.0,4.0,-100.00,NE,43,9.0,23.0,75,0.00,,,0.04,0.000000,,2013-04-16 08:02:00,
2013-04-16 02:32:00,8.0,2.0,-100.00,NE,54,9.0,15.0,75,0.00,,,0.04,0.000000,,2013-04-16 08:32:00,
2013-04-16 02:42:00,8.0,2.0,-100.00,NE,54,9.0,15.0,75,0.00,,,0.04,0.000000,,2013-04-16 08:42:00,
2013-04-16 02:52:00,8.0,2.0,-100.00,NE,54,9.0,15.0,75,0.00,,,0.04,0.000000,,2013-04-16 08:52:00,
2013-04-16 03:02:00,8.0,2.0,-100.00,NE,54,9.0,15.0,75,0.00,,,0.04,0.000000,,2013-04-16 09:02:00,
2013-04-16 03:33:00,7.0,1.0,-100.00,NE,54,7.0,18.0,76,0.00,,,0.04,0.000000,,2013-04-16 09:33:00,
2013-04-16 03:43:00,7.0,1.0,-100.00,NE,54,7.0,18.0,76,0.00,,,0.04,0.000000,,2013-04-16 09:43:00,
2013-04-16 03:53:00,7.0,1.0,-100.00,NE,54,7.0,18.0,76,0.00,,,0.04,0.000000,,2013-04-16 09:53:00,
2013-04-16 04:03:00,7.0,1.0,-100.00,NE,54,7.0,18.0,76,0.00,,,0.04,0.000000,,2013-04-16 10:03:00,
2013-04-16 04:33:00,7.0,1.0,-100.00,NE,38,6.0,10.0,77,0.00,,,0.04,0.000000,,2013-04-16 10:33:00,
2013-04-16 04:43:00,7.0,1.0,-100.00,NE,38,6.0,10.0,77,0.00,,,0.04,0.000000,,2013-04-16 10:43:00,
2013-04-16 04:52:00,7.0,1.0,-100.00,NE,38,6.0,10.0,77,0.00,,,0.04,0.000000,,2013-04-16 10:52:00,
2013-04-16 05:02:00,7.0,1.0,-100.00,NE,38,6.0,10.0,77,0.00,,,0.04,0.000000,,2013-04-16 11:02:00,
2013-04-16 05:32:00,7.0,1.0,-100.00,NNE,27,6.0,10.0,77,0.00,,,0.04,0.000000,,2013-04-16 11:32:00,
2013-04-16 05:42:00,7.0,1.0,-100.00,NNE,27,6.0,10.0,77,0.00,,,0.04,0.000000,,2013-04-16 11:42:00,
2013-04-16 05:52:00,7.0,1.0,-100.00,NNE,27,6.0,10.0,77,0.00,,,0.04,0.000000,,2013-04-16 11:52:00,
2013-04-16 06:02:00,7.0,1.0,-100.00,NNE,27,6.0,10.0,77,0.00,,,0.04,0.000000,,2013-04-16 12:02:00,
2013-04-16 06:32:00,6.0,1.0,-100.00,NNE,31,10.0,15.0,78,0.00,,,0.04,0.000000,,2013-04-16 12:32:00,
2013-04-16 06:42:00,6.0,1.0,-100.00,NNE,31,10.0,15.0,78,0.00,,,0.04,0.000000,,2013-04-16 12:42:00,
2013-04-16 06:52:00,6.0,1.0,-100.00,NNE,31,10.0,15.0,78,0.00,,,0.04,0.000000,,2013-04-16 12:52:00,
2013-04-16 07:02:00,6.0,1.0,-100.00,NNE,31,10.0,15.0,78,0.00,,,0.04,0.000000,,2013-04-16 13:02:00,
2013-04-16 07:32:00,6.0,1.0,-100.00,NE,48,7.0,15.0,78,0.00,,,0.04,4.000000,,2013-04-16 13:32:00,
2013-04-16 07:42:00,6.0,1.0,-100.00,NE,48,7.0,15.0,78,0.00,,,0.04,4.000000,,2013-04-16 13:42:00,
2013-04-16 07:52:00,6.0,1.0,-100.00,NE,48,7.0,15.0,78,0.00,,,0.04,4.000000,,2013-04-16 13:52:00,
2013-04-16 08:02:00,6.0,1.0,-100.00,NE,48,7.0,15.0,78,0.00,,,0.04,4.000000,,2013-04-16 14:02:00,
2013-04-16 08:32:00,11.0,4.0,-100.00,ENE,69,4.0,13.0,72,0.00,,,-99.99,127.000000,,2013-04-16 14:32:00,
2013-04-16 08:42:00,11.0,4.0,-100.00,ENE,69,4.0,13.0,72,0.00,,,-99.99,127.000000,,2013-04-16 14:42:00,
2013-04-16 08:52:00,11.0,4.0,-100.00,ENE,69,4.0,13.0,72,0.00,,,-99.99,127.000000,,2013-04-16 14:52:00,
2013-04-16 09:02:00,11.0,4.0,-100.00,ENE,69,4.0,13.0,72,0.00,,,-99.99,127.000000,,2013-04-16 15:02:00,
2013-04-16 09:33:00,13.0,5.0,-100.00,NE,47,6.0,14.0,69,0.00,,,0.04,352.000000,,2013-04-16 15:33:00,
2013-04-16 09:43:00,13.0,5.0,-100.00,NE,47,6.0,14.0,69,0.00,,,0.04,352.000000,,2013-04-16 15:43:00,
2013-04-16 09:53:00,13.0,5.0,-100.00,NE,47,6.0,14.0,69,0.00,,,0.04,352.000000,,2013-04-16 15:53:00,
2013-04-16 10:03:00,13.0,5.0,-100.00,NE,47,6.0,14.0,69,0.00,,,0.04,352.000000,,2013-04-16 16:03:00,
2013-04-16 10:33:00,16.0,6.0,-100.00,ENE,58,5.0,13.0,65,0.00,,,0.04,546.000000,,2013-04-16 16:33:00,
2013-04-16 10:42:00,16.0,6.0,-100.00,ENE,58,5.0,13.0,65,0.00,,,0.04,546.000000,,2013-04-16 16:42:00,
2013-04-16 10:52:00,16.0,6.0,-100.00,ENE,58,5.0,13.0,65,0.00,,,0.04,546.000000,,2013-04-16 16:52:00,
2013-04-16 11:02:00,16.0,6.0,-100.00,ENE,58,5.0,13.0,65,0.00,,,0.04,546.000000,,2013-04-16 17:02:00,
2013-04-16 11:33:00,16.0,6.0,-100.00,NE,35,7.0,16.0,64,0.00,,,0.04,643.000000,,2013-04-16 17:33:00,
2013-04-16 11:43:00,16.0,6.0,-100.00,NE,35,7.0,16.0,64,0.00,,,0.04,643.000000,,2013-04-16 17:43:00,
2013-04-16 11:53:00,16.0,6.0,-100.00,NE,35,7.0,16.0,64,0.00,,,0.04,643.000000,,2013-04-16 17:53:00,
2013-04-16 12:02:00,16.0,6.0,-100.00,NE,35,7.0,16.0,64,0.00,,,0.04,643.000000,,2013-04-16 18:02:00,
2013-04-16 12:32:00,16.0,7.0,-100.00,North,0,9.0,15.0,67,0.00,,,0.03,520.000000,,2013-04-16 18:32:00,
2013-04-16 12:43:00,16.0,7.0,-100.00,North,0,9.0,15.0,67,0.00,,,0.03,520.000000,,2013-04-16 18:43:00,
2013-04-16 12:52:00,16.0,7.0,-100.00,North,0,9.0,15.0,67,0.00,,,0.03,520.000000,,2013-04-16 18:52:00,
2013-04-16 13:02:00,16.0,7.0,-100.00,North,0,9.0,15.0,67,0.00,,,0.03,520.000000,,2013-04-16 19:02:00,
2013-04-16 13:32:00,17.0,7.0,-100.00,North,352,12.0,21.0,65,0.00,,,0.01,717.000000,,2013-04-16 19:32:00,
2013-04-16 13:42:00,17.0,7.0,-100.00,North,352,12.0,21.0,65,0.00,,,0.01,717.000000,,2013-04-16 19:42:00,
2013-04-16 13:52:00,17.0,7.0,-100.00,North,352,12.0,21.0,65,0.00,,,0.01,717.000000,,2013-04-16 19:52:00,
2013-04-16 14:02:00,17.0,7.0,-100.00,North,352,12.0,21.0,65,0.00,,,0.01,717.000000,,2013-04-16 20:02:00,
2013-04-16 14:32:00,19.0,10.0,-100.00,North,2,10.0,19.0,68,0.00,,,0.00,749.000000,,2013-04-16 20:32:00,
2013-04-16 14:42:00,19.0,10.0,-100.00,North,2,10.0,19.0,68,0.00,,,0.00,749.000000,,2013-04-16 20:42:00,
2013-04-16 14:52:00,19.0,10.0,-100.00,North,2,10.0,19.0,68,0.00,,,0.00,749.000000,,2013-04-16 20:52:00,
2013-04-16 15:02:00,19.0,10.0,-100.00,North,2,10.0,19.0,68,0.00,,,0.00,749.000000,,2013-04-16 21:02:00,
2013-04-16 15:33:00,20.0,10.0,-100.00,NNW,331,12.0,20.0,65,0.00,,,0.00,679.000000,,2013-04-16 21:33:00,
2013-04-16 15:43:00,20.0,10.0,-100.00,NNW,331,12.0,20.0,65,0.00,,,0.00,679.000000,,2013-04-16 21:43:00,
2013-04-16 15:53:00,20.0,10.0,-100.00,NNW,331,12.0,20.0,65,0.00,,,0.00,679.000000,,2013-04-16 21:53:00,
2013-04-16 16:02:00,20.0,10.0,-100.00,NNW,331,12.0,20.0,65,0.00,,,0.00,679.000000,,2013-04-16 22:02:00,
2013-04-16 16:33:00,21.0,15.0,-100.00,NNW,331,10.0,21.0,76,0.00,,,0.00,605.000000,,2013-04-16 22:33:00,
2013-04-16 16:43:00,21.0,15.0,-100.00,NNW,331,10.0,21.0,76,0.00,,,0.00,605.000000,,2013-04-16 22:43:00,
2013-04-16 16:52:00,21.0,15.0,-100.00,NNW,331,10.0,21.0,76,0.00,,,0.00,605.000000,,2013-04-16 22:52:00,
2013-04-16 17:02:00,21.0,15.0,-100.00,NNW,331,10.0,21.0,76,0.00,,,0.00,605.000000,,2013-04-16 23:02:00,
2013-04-16 17:32:00,19.0,10.0,-100.00,North,4,12.0,19.0,66,0.00,,,0.00,572.000000,,2013-04-16 23:32:00,
2013-04-16 17:43:00,19.0,10.0,-100.00,North,4,12.0,19.0,66,0.00,,,0.00,572.000000,,2013-04-16 23:43:00,
2013-04-16 17:52:00,19.0,10.0,-100.00,North,4,12.0,19.0,66,0.00,,,0.00,572.000000,,2013-04-16 23:52:00,
2013-04-16 18:02:00,19.0,10.0,-100.00,North,4,12.0,19.0,66,0.00,,,0.00,572.000000,,2013-04-17 00:02:00,
2013-04-16 18:32:00,17.0,7.0,-100.00,NNE,30,12.0,20.0,64,0.00,,,-99.99,303.000000,,2013-04-17 00:32:00,
2013-04-16 18:42:00,17.0,7.0,-100.00,NNE,30,12.0,20.0,64,0.00,,,-99.99,303.000000,,2013-04-17 00:42:00,
2013-04-16 18:52:00,17.0,7.0,-100.00,NNE,30,12.0,20.0,64,0.00,,,-99.99,303.000000,,2013-04-17 00:52:00,
2013-04-16 19:02:00,17.0,7.0,-100.00,NNE,30,12.0,20.0,64,0.00,,,-99.99,303.000000,,2013-04-17 01:02:00,
2013-04-16 19:32:00,17.0,5.0,-100.00,NE,38,10.0,19.0,58,0.00,,,0.00,86.000000,,2013-04-17 01:32:00,
2013-04-16 19:42:00,17.0,5.0,-100.00,NE,38,10.0,19.0,58,0.00,,,0.00,86.000000,,2013-04-17 01:42:00,
2013-04-16 19:52:00,17.0,5.0,-100.00,NE,38,10.0,19.0,58,0.00,,,0.00,86.000000,,2013-04-17 01:52:00,
2013-04-16 20:02:00,17.0,5.0,-100.00,NE,38,10.0,19.0,58,0.00,,,0.00,86.000000,,2013-04-17 02:02:00,
2013-04-16 20:32:00,15.0,4.0,-100.00,NNE,30,14.0,20.0,62,0.00,,,0.00,33.000000,,2013-04-17 02:32:00,
2013-04-16 20:42:00,15.0,4.0,-100.00,NNE,30,14.0,20.0,62,0.00,,,0.00,33.000000,,2013-04-17 02:42:00,
2013-04-16 20:52:00,15.0,4.0,-100.00,NNE,30,14.0,20.0,62,0.00,,,0.00,33.000000,,2013-04-17 02:52:00,
2013-04-16 21:02:00,15.0,4.0,-100.00,NNE,30,14.0,20.0,62,0.00,,,0.00,33.000000,,2013-04-17 03:02:00,
2013-04-16 21:33:00,13.0,4.0,-100.00,NE,38,10.0,21.0,67,0.00,,,0.00,4.000000,,2013-04-17 03:33:00,
2013-04-16 21:42:00,13.0,4.0,-100.00,NE,38,10.0,21.0,67,0.00,,,0.00,4.000000,,2013-04-17 03:42:00,
2013-04-16 21:53:00,13.0,4.0,-100.00,NE,38,10.0,21.0,67,0.00,,,0.00,4.000000,,2013-04-17 03:53:00,
2013-04-16 22:03:00,13.0,4.0,-100.00,NE,38,10.0,21.0,67,0.00,,,0.00,4.000000,,2013-04-17 04:03:00,
2013-04-16 22:33:00,11.0,3.0,-100.00,NE,41,8.0,18.0,68,0.00,,,-99.99,0.000000,,2013-04-17 04:33:00,
2013-04-16 22:42:00,11.0,3.0,-100.00,NE,41,8.0,18.0,68,0.00,,,-99.99,0.000000,,2013-04-17 04:42:00,
2013-04-16 22:52:00,11.0,3.0,-100.00,NE,41,8.0,18.0,68,0.00,,,-99.99,0.000000,,2013-04-17 04:52:00,
2013-04-16 23:02:00,11.0,3.0,-100.00,NE,41,8.0,18.0,68,0.00,,,-99.99,0.000000,,2013-04-17 05:02:00,
2013-04-16 23:32:00,10.0,4.0,-100.00,NE,51,7.0,15.0,76,0.00,,,0.00,0.000000,,2013-04-17 05:32:00,
2013-04-16 23:43:00,10.0,4.0,-100.00,NE,51,7.0,15.0,76,0.00,,,0.00,0.000000,,2013-04-17 05:43:00,
2013-04-16 23:52:00,10.0,4.0,-100.00,NE,51,7.0,15.0,76,0.00,,,0.00,0.000000,,2013-04-17 05:52:00,